sensor_id;sensor_type;location;lat;lon;timestamp;P1;durP1;ratioP1;P2;durP2;ratioP2
35126;SDS011;21300;52.006;5.798;2022-09-13T00:01:04;9.18;;;5.70;;
35126;SDS011;21300;52.006;5.798;2022-09-13T00:03:30;9.90;;;5.20;;
35126;SDS011;21300;52.006;5.798;2022-09-13T00:05:56;7.65;;;5.32;;
35126;SDS011;21300;52.006;5.798;2022-09-13T00:08:23;6.07;;;5.00;;
35126;SDS011;21300;52.006;5.798;2022-09-13T00:10:49;7.53;;;5.25;;
35126;SDS011;21300;52.006;5.798;2022-09-13T00:13:15;7.88;;;5.13;;
35126;SDS011;21300;52.006;5.798;2022-09-13T00:15:45;7.97;;;5.05;;
35126;SDS011;21300;52.006;5.798;2022-09-13T00:18:12;8.93;;;5.50;;
35126;SDS011;21300;52.006;5.798;2022-09-13T00:20:38;7.15;;;5.00;;
35126;SDS011;21300;52.006;5.798;2022-09-13T00:23:04;10.35;;;5.05;;
35126;SDS011;21300;52.006;5.798;2022-09-13T00:25:30;7.28;;;5.30;;
35126;SDS011;21300;52.006;5.798;2022-09-13T00:27:55;8.27;;;5.40;;
35126;SDS011;21300;52.006;5.798;2022-09-13T00:30:21;5.63;;;5.00;;
35126;SDS011;21300;52.006;5.798;2022-09-13T00:32:47;6.13;;;5.10;;
35126;SDS011;21300;52.006;5.798;2022-09-13T00:35:12;7.85;;;5.40;;
35126;SDS011;21300;52.006;5.798;2022-09-13T00:37:38;8.55;;;5.63;;
35126;SDS011;21300;52.006;5.798;2022-09-13T00:40:04;9.90;;;6.05;;
35126;SDS011;21300;52.006;5.798;2022-09-13T00:42:31;9.68;;;5.85;;
35126;SDS011;21300;52.006;5.798;2022-09-13T00:45:00;9.85;;;5.47;;
35126;SDS011;21300;52.006;5.798;2022-09-13T00:47:58;8.50;;;5.18;;
35126;SDS011;21300;52.006;5.798;2022-09-13T00:50:30;9.68;;;6.55;;
35126;SDS011;21300;52.006;5.798;2022-09-13T00:58:30;9.27;;;5.32;;
35126;SDS011;21300;52.006;5.798;2022-09-13T01:01:03;7.93;;;5.20;;
35126;SDS011;21300;52.006;5.798;2022-09-13T01:03:32;12.98;;;5.70;;
35126;SDS011;21300;52.006;5.798;2022-09-13T01:06:03;8.23;;;4.93;;
35126;SDS011;21300;52.006;5.798;2022-09-13T01:08:40;8.25;;;4.80;;
35126;SDS011;21300;52.006;5.798;2022-09-13T01:11:12;7.40;;;4.97;;
35126;SDS011;21300;52.006;5.798;2022-09-13T01:13:53;7.47;;;5.13;;
35126;SDS011;21300;52.006;5.798;2022-09-13T01:16:19;8.70;;;5.60;;
35126;SDS011;21300;52.006;5.798;2022-09-13T01:18:45;10.15;;;6.05;;
35126;SDS011;21300;52.006;5.798;2022-09-13T01:32:39;6.18;;;5.35;;
35126;SDS011;21300;52.006;5.798;2022-09-13T01:41:04;12.60;;;6.75;;
35126;SDS011;21300;52.006;5.798;2022-09-13T01:46:27;10.45;;;6.85;;
35126;SDS011;21300;52.006;5.798;2022-09-13T01:49:18;8.32;;;7.32;;
35126;SDS011;21300;52.006;5.798;2022-09-13T01:51:55;11.13;;;7.93;;
35126;SDS011;21300;52.006;5.798;2022-09-13T01:57:06;13.18;;;7.78;;
35126;SDS011;21300;52.006;5.798;2022-09-13T02:02:32;7.72;;;6.70;;
35126;SDS011;21300;52.006;5.798;2022-09-13T02:05:23;11.23;;;6.95;;
35126;SDS011;21300;52.006;5.798;2022-09-13T02:08:07;8.45;;;6.47;;
35126;SDS011;21300;52.006;5.798;2022-09-13T02:10:38;8.73;;;6.47;;
35126;SDS011;21300;52.006;5.798;2022-09-13T02:13:10;7.93;;;6.90;;
35126;SDS011;21300;52.006;5.798;2022-09-13T02:15:45;8.82;;;6.90;;
35126;SDS011;21300;52.006;5.798;2022-09-13T02:18:19;10.35;;;7.20;;
35126;SDS011;21300;52.006;5.798;2022-09-13T02:20:51;7.60;;;6.25;;
35126;SDS011;21300;52.006;5.798;2022-09-13T02:23:23;9.43;;;6.55;;
35126;SDS011;21300;52.006;5.798;2022-09-13T02:25:55;10.05;;;6.82;;
35126;SDS011;21300;52.006;5.798;2022-09-13T02:28:27;9.73;;;6.53;;
35126;SDS011;21300;52.006;5.798;2022-09-13T02:30:56;10.05;;;6.70;;
35126;SDS011;21300;52.006;5.798;2022-09-13T02:33:38;8.27;;;6.43;;
35126;SDS011;21300;52.006;5.798;2022-09-13T02:36:28;10.68;;;7.95;;
35126;SDS011;21300;52.006;5.798;2022-09-13T02:39:05;13.48;;;10.55;;
35126;SDS011;21300;52.006;5.798;2022-09-13T02:41:38;13.00;;;10.80;;
35126;SDS011;21300;52.006;5.798;2022-09-13T02:44:11;13.07;;;10.93;;
35126;SDS011;21300;52.006;5.798;2022-09-13T02:49:47;14.55;;;10.93;;
35126;SDS011;21300;52.006;5.798;2022-09-13T02:52:30;18.23;;;11.43;;
35126;SDS011;21300;52.006;5.798;2022-09-13T02:55:28;12.82;;;9.57;;
35126;SDS011;21300;52.006;5.798;2022-09-13T03:00:48;12.68;;;10.02;;
35126;SDS011;21300;52.006;5.798;2022-09-13T03:03:14;12.73;;;10.23;;
35126;SDS011;21300;52.006;5.798;2022-09-13T03:05:40;12.05;;;9.65;;
35126;SDS011;21300;52.006;5.798;2022-09-13T03:08:08;12.55;;;9.43;;
35126;SDS011;21300;52.006;5.798;2022-09-13T03:29:32;12.32;;;6.90;;
35126;SDS011;21300;52.006;5.798;2022-09-13T03:34:46;10.20;;;7.10;;
35126;SDS011;21300;52.006;5.798;2022-09-13T03:42:46;8.73;;;6.95;;
35126;SDS011;21300;52.006;5.798;2022-09-13T03:45:14;10.75;;;7.00;;
35126;SDS011;21300;52.006;5.798;2022-09-13T03:47:43;10.90;;;7.47;;
35126;SDS011;21300;52.006;5.798;2022-09-13T03:50:13;11.10;;;7.72;;
35126;SDS011;21300;52.006;5.798;2022-09-13T03:52:44;11.90;;;8.05;;
35126;SDS011;21300;52.006;5.798;2022-09-13T03:55:12;9.68;;;7.80;;
35126;SDS011;21300;52.006;5.798;2022-09-13T03:57:38;9.80;;;7.65;;
35126;SDS011;21300;52.006;5.798;2022-09-13T04:02:48;14.17;;;8.67;;
35126;SDS011;21300;52.006;5.798;2022-09-13T04:05:15;12.10;;;8.75;;
35126;SDS011;21300;52.006;5.798;2022-09-13T04:07:40;10.95;;;8.70;;
35126;SDS011;21300;52.006;5.798;2022-09-13T04:10:06;12.40;;;9.18;;
35126;SDS011;21300;52.006;5.798;2022-09-13T04:12:32;12.25;;;9.18;;
35126;SDS011;21300;52.006;5.798;2022-09-13T04:14:59;13.57;;;9.02;;
35126;SDS011;21300;52.006;5.798;2022-09-13T04:17:25;12.40;;;8.85;;
35126;SDS011;21300;52.006;5.798;2022-09-13T04:19:50;10.43;;;8.63;;
35126;SDS011;21300;52.006;5.798;2022-09-13T04:22:16;11.63;;;8.15;;
35126;SDS011;21300;52.006;5.798;2022-09-13T04:24:41;9.88;;;7.90;;
35126;SDS011;21300;52.006;5.798;2022-09-13T04:27:08;11.13;;;8.52;;
35126;SDS011;21300;52.006;5.798;2022-09-13T04:29:34;10.27;;;8.07;;
35126;SDS011;21300;52.006;5.798;2022-09-13T04:31:59;11.88;;;8.07;;
35126;SDS011;21300;52.006;5.798;2022-09-13T04:34:25;10.82;;;8.27;;
35126;SDS011;21300;52.006;5.798;2022-09-13T04:36:51;10.32;;;7.85;;
35126;SDS011;21300;52.006;5.798;2022-09-13T04:39:20;11.57;;;8.15;;
35126;SDS011;21300;52.006;5.798;2022-09-13T04:41:47;9.38;;;7.47;;
35126;SDS011;21300;52.006;5.798;2022-09-13T04:44:14;11.23;;;7.75;;
35126;SDS011;21300;52.006;5.798;2022-09-13T04:46:41;10.38;;;7.47;;
35126;SDS011;21300;52.006;5.798;2022-09-13T04:49:08;13.43;;;7.72;;
35126;SDS011;21300;52.006;5.798;2022-09-13T04:51:34;10.10;;;7.75;;
35126;SDS011;21300;52.006;5.798;2022-09-13T04:54:00;14.93;;;8.02;;
35126;SDS011;21300;52.006;5.798;2022-09-13T04:56:26;13.27;;;7.78;;
35126;SDS011;21300;52.006;5.798;2022-09-13T04:58:52;14.63;;;8.07;;
35126;SDS011;21300;52.006;5.798;2022-09-13T05:01:19;11.98;;;9.38;;
35126;SDS011;21300;52.006;5.798;2022-09-13T05:03:46;14.57;;;9.65;;
35126;SDS011;21300;52.006;5.798;2022-09-13T05:06:13;14.70;;;9.30;;
35126;SDS011;21300;52.006;5.798;2022-09-13T05:08:42;11.98;;;8.88;;
35126;SDS011;21300;52.006;5.798;2022-09-13T05:11:08;11.35;;;8.45;;
35126;SDS011;21300;52.006;5.798;2022-09-13T05:13:34;12.75;;;8.38;;
35126;SDS011;21300;52.006;5.798;2022-09-13T05:16:01;12.18;;;8.75;;
35126;SDS011;21300;52.006;5.798;2022-09-13T05:18:29;14.70;;;9.55;;
35126;SDS011;21300;52.006;5.798;2022-09-13T05:20:57;12.38;;;9.48;;
35126;SDS011;21300;52.006;5.798;2022-09-13T05:23:25;18.90;;;10.40;;
35126;SDS011;21300;52.006;5.798;2022-09-13T05:25:55;11.30;;;9.48;;
35126;SDS011;21300;52.006;5.798;2022-09-13T05:28:25;11.55;;;8.70;;
35126;SDS011;21300;52.006;5.798;2022-09-13T05:30:53;14.40;;;9.40;;
35126;SDS011;21300;52.006;5.798;2022-09-13T05:33:27;10.43;;;8.90;;
35126;SDS011;21300;52.006;5.798;2022-09-13T05:35:54;12.23;;;9.55;;
35126;SDS011;21300;52.006;5.798;2022-09-13T05:38:20;11.93;;;9.60;;
35126;SDS011;21300;52.006;5.798;2022-09-13T05:40:46;12.65;;;9.43;;
35126;SDS011;21300;52.006;5.798;2022-09-13T05:43:12;13.18;;;9.55;;
35126;SDS011;21300;52.006;5.798;2022-09-13T05:45:38;15.20;;;9.60;;
35126;SDS011;21300;52.006;5.798;2022-09-13T05:48:04;14.65;;;9.63;;
35126;SDS011;21300;52.006;5.798;2022-09-13T05:50:29;15.30;;;10.18;;
35126;SDS011;21300;52.006;5.798;2022-09-13T05:52:55;16.88;;;9.18;;
35126;SDS011;21300;52.006;5.798;2022-09-13T05:55:21;10.55;;;8.75;;
35126;SDS011;21300;52.006;5.798;2022-09-13T05:57:47;14.43;;;9.00;;
35126;SDS011;21300;52.006;5.798;2022-09-13T06:00:13;12.70;;;9.50;;
35126;SDS011;21300;52.006;5.798;2022-09-13T06:02:40;9.43;;;8.43;;
35126;SDS011;21300;52.006;5.798;2022-09-13T06:05:06;13.77;;;9.73;;
35126;SDS011;21300;52.006;5.798;2022-09-13T06:07:34;15.25;;;10.85;;
35126;SDS011;21300;52.006;5.798;2022-09-13T06:10:02;15.35;;;10.40;;
35126;SDS011;21300;52.006;5.798;2022-09-13T06:12:29;12.80;;;10.52;;
35126;SDS011;21300;52.006;5.798;2022-09-13T06:14:54;14.23;;;10.02;;
35126;SDS011;21300;52.006;5.798;2022-09-13T06:17:20;11.32;;;10.02;;
35126;SDS011;21300;52.006;5.798;2022-09-13T06:19:46;14.13;;;10.95;;
35126;SDS011;21300;52.006;5.798;2022-09-13T06:22:11;16.38;;;12.07;;
35126;SDS011;21300;52.006;5.798;2022-09-13T06:24:37;14.45;;;12.63;;
35126;SDS011;21300;52.006;5.798;2022-09-13T06:27:03;14.40;;;11.55;;
35126;SDS011;21300;52.006;5.798;2022-09-13T06:29:28;15.25;;;12.18;;
35126;SDS011;21300;52.006;5.798;2022-09-13T06:31:54;17.13;;;13.40;;
35126;SDS011;21300;52.006;5.798;2022-09-13T06:34:20;19.83;;;13.82;;
35126;SDS011;21300;52.006;5.798;2022-09-13T06:36:45;22.88;;;14.40;;
35126;SDS011;21300;52.006;5.798;2022-09-13T06:39:11;24.23;;;16.83;;
35126;SDS011;21300;52.006;5.798;2022-09-13T06:41:37;20.20;;;14.43;;
35126;SDS011;21300;52.006;5.798;2022-09-13T06:44:03;18.70;;;14.57;;
35126;SDS011;21300;52.006;5.798;2022-09-13T06:46:30;18.92;;;15.45;;
35126;SDS011;21300;52.006;5.798;2022-09-13T06:49:00;23.80;;;16.90;;
35126;SDS011;21300;52.006;5.798;2022-09-13T06:51:28;22.45;;;16.60;;
35126;SDS011;21300;52.006;5.798;2022-09-13T06:53:54;25.13;;;18.98;;
35126;SDS011;21300;52.006;5.798;2022-09-13T06:56:41;23.98;;;18.08;;
35126;SDS011;21300;52.006;5.798;2022-09-13T06:59:08;29.77;;;19.73;;
35126;SDS011;21300;52.006;5.798;2022-09-13T07:01:35;29.48;;;21.17;;
35126;SDS011;21300;52.006;5.798;2022-09-13T07:04:03;28.60;;;20.83;;
35126;SDS011;21300;52.006;5.798;2022-09-13T07:06:40;28.83;;;21.00;;
35126;SDS011;21300;52.006;5.798;2022-09-13T07:09:10;30.80;;;22.42;;
35126;SDS011;21300;52.006;5.798;2022-09-13T07:11:38;30.05;;;21.55;;
35126;SDS011;21300;52.006;5.798;2022-09-13T07:14:05;28.80;;;21.88;;
35126;SDS011;21300;52.006;5.798;2022-09-13T07:16:32;32.05;;;22.75;;
35126;SDS011;21300;52.006;5.798;2022-09-13T07:19:00;34.80;;;22.65;;
35126;SDS011;21300;52.006;5.798;2022-09-13T07:21:29;37.45;;;22.83;;
35126;SDS011;21300;52.006;5.798;2022-09-13T07:23:56;34.20;;;24.00;;
35126;SDS011;21300;52.006;5.798;2022-09-13T07:26:23;33.38;;;23.45;;
35126;SDS011;21300;52.006;5.798;2022-09-13T07:28:52;38.38;;;23.77;;
35126;SDS011;21300;52.006;5.798;2022-09-13T07:31:25;36.53;;;23.48;;
35126;SDS011;21300;52.006;5.798;2022-09-13T07:33:54;42.17;;;27.38;;
35126;SDS011;21300;52.006;5.798;2022-09-13T07:36:21;39.17;;;24.95;;
35126;SDS011;21300;52.006;5.798;2022-09-13T07:38:48;31.35;;;23.75;;
35126;SDS011;21300;52.006;5.798;2022-09-13T07:41:15;34.47;;;22.95;;
35126;SDS011;21300;52.006;5.798;2022-09-13T07:43:43;33.35;;;23.45;;
35126;SDS011;21300;52.006;5.798;2022-09-13T07:46:10;27.02;;;20.13;;
35126;SDS011;21300;52.006;5.798;2022-09-13T07:48:40;32.60;;;23.75;;
35126;SDS011;21300;52.006;5.798;2022-09-13T07:51:09;33.00;;;21.40;;
35126;SDS011;21300;52.006;5.798;2022-09-13T07:53:35;31.77;;;21.65;;
35126;SDS011;21300;52.006;5.798;2022-09-13T07:56:05;28.13;;;20.45;;
35126;SDS011;21300;52.006;5.798;2022-09-13T07:58:33;26.08;;;18.58;;
35126;SDS011;21300;52.006;5.798;2022-09-13T08:01:03;30.70;;;21.08;;
35126;SDS011;21300;52.006;5.798;2022-09-13T08:03:34;21.85;;;17.58;;
35126;SDS011;21300;52.006;5.798;2022-09-13T08:06:00;18.90;;;15.55;;
35126;SDS011;21300;52.006;5.798;2022-09-13T08:08:27;26.15;;;17.25;;
35126;SDS011;21300;52.006;5.798;2022-09-13T08:10:54;25.73;;;16.90;;
35126;SDS011;21300;52.006;5.798;2022-09-13T08:13:20;24.58;;;18.48;;
35126;SDS011;21300;52.006;5.798;2022-09-13T08:15:45;26.25;;;18.85;;
35126;SDS011;21300;52.006;5.798;2022-09-13T08:18:11;30.67;;;19.45;;
35126;SDS011;21300;52.006;5.798;2022-09-13T08:20:37;30.85;;;20.17;;
35126;SDS011;21300;52.006;5.798;2022-09-13T08:23:04;28.70;;;21.85;;
35126;SDS011;21300;52.006;5.798;2022-09-13T08:25:31;25.35;;;17.80;;
35126;SDS011;21300;52.006;5.798;2022-09-13T08:27:59;30.70;;;20.15;;
35126;SDS011;21300;52.006;5.798;2022-09-13T08:30:25;29.73;;;19.95;;
35126;SDS011;21300;52.006;5.798;2022-09-13T08:32:57;32.35;;;20.33;;
35126;SDS011;21300;52.006;5.798;2022-09-13T08:35:26;31.58;;;21.60;;
35126;SDS011;21300;52.006;5.798;2022-09-13T08:37:53;32.13;;;22.65;;
35126;SDS011;21300;52.006;5.798;2022-09-13T08:40:20;33.88;;;22.08;;
35126;SDS011;21300;52.006;5.798;2022-09-13T08:43:00;32.20;;;22.15;;
35126;SDS011;21300;52.006;5.798;2022-09-13T08:48:40;32.00;;;24.38;;
35126;SDS011;21300;52.006;5.798;2022-09-13T08:51:15;33.15;;;23.98;;
35126;SDS011;21300;52.006;5.798;2022-09-13T08:53:56;33.42;;;24.30;;
35126;SDS011;21300;52.006;5.798;2022-09-13T09:04:45;24.20;;;17.85;;
35126;SDS011;21300;52.006;5.798;2022-09-13T09:07:57;24.30;;;18.58;;
35126;SDS011;21300;52.006;5.798;2022-09-13T09:10:52;21.42;;;15.68;;
35126;SDS011;21300;52.006;5.798;2022-09-13T09:16:19;24.83;;;16.77;;
35126;SDS011;21300;52.006;5.798;2022-09-13T09:21:16;19.38;;;13.43;;
35126;SDS011;21300;52.006;5.798;2022-09-13T09:23:49;19.70;;;11.30;;
35126;SDS011;21300;52.006;5.798;2022-09-13T09:26:21;16.48;;;11.90;;
35126;SDS011;21300;52.006;5.798;2022-09-13T09:28:53;15.50;;;11.20;;
35126;SDS011;21300;52.006;5.798;2022-09-13T09:34:31;14.43;;;10.35;;
35126;SDS011;21300;52.006;5.798;2022-09-13T09:37:25;12.82;;;9.80;;
35126;SDS011;21300;52.006;5.798;2022-09-13T09:39:54;11.40;;;8.05;;
35126;SDS011;21300;52.006;5.798;2022-09-13T09:42:27;12.35;;;8.60;;
35126;SDS011;21300;52.006;5.798;2022-09-13T09:45:00;10.68;;;8.25;;
35126;SDS011;21300;52.006;5.798;2022-09-13T09:47:32;10.25;;;8.40;;
35126;SDS011;21300;52.006;5.798;2022-09-13T09:50:17;15.07;;;9.20;;
35126;SDS011;21300;52.006;5.798;2022-09-13T09:52:52;11.48;;;9.30;;
35126;SDS011;21300;52.006;5.798;2022-09-13T09:58:10;12.32;;;8.02;;
35126;SDS011;21300;52.006;5.798;2022-09-13T10:03:17;12.07;;;8.48;;
35126;SDS011;21300;52.006;5.798;2022-09-13T10:05:44;10.73;;;7.47;;
35126;SDS011;21300;52.006;5.798;2022-09-13T10:08:32;9.98;;;7.40;;
35126;SDS011;21300;52.006;5.798;2022-09-13T10:11:01;10.10;;;7.40;;
35126;SDS011;21300;52.006;5.798;2022-09-13T10:13:27;10.93;;;8.23;;
35126;SDS011;21300;52.006;5.798;2022-09-13T10:15:58;14.70;;;8.13;;
35126;SDS011;21300;52.006;5.798;2022-09-13T10:18:27;11.43;;;8.13;;
35126;SDS011;21300;52.006;5.798;2022-09-13T10:21:04;10.23;;;6.97;;
35126;SDS011;21300;52.006;5.798;2022-09-13T10:23:42;9.90;;;7.68;;
35126;SDS011;21300;52.006;5.798;2022-09-13T10:26:10;10.23;;;7.07;;
35126;SDS011;21300;52.006;5.798;2022-09-13T10:31:16;7.03;;;5.78;;
35126;SDS011;21300;52.006;5.798;2022-09-13T10:33:51;9.77;;;5.32;;
35126;SDS011;21300;52.006;5.798;2022-09-13T10:36:29;6.25;;;4.88;;
35126;SDS011;21300;52.006;5.798;2022-09-13T10:38:59;7.90;;;4.50;;
35126;SDS011;21300;52.006;5.798;2022-09-13T10:41:27;5.10;;;3.75;;
35126;SDS011;21300;52.006;5.798;2022-09-13T10:43:56;4.50;;;3.30;;
35126;SDS011;21300;52.006;5.798;2022-09-13T10:46:26;4.97;;;3.45;;
35126;SDS011;21300;52.006;5.798;2022-09-13T10:48:55;7.45;;;3.28;;
35126;SDS011;21300;52.006;5.798;2022-09-13T10:51:32;4.00;;;2.83;;
35126;SDS011;21300;52.006;5.798;2022-09-13T10:56:41;5.78;;;3.38;;
35126;SDS011;21300;52.006;5.798;2022-09-13T11:07:37;3.58;;;2.35;;
35126;SDS011;21300;52.006;5.798;2022-09-13T11:10:26;3.25;;;2.47;;
35126;SDS011;21300;52.006;5.798;2022-09-13T11:13:06;6.07;;;2.55;;
35126;SDS011;21300;52.006;5.798;2022-09-13T11:15:54;2.78;;;1.90;;
35126;SDS011;21300;52.006;5.798;2022-09-13T11:18:45;3.97;;;2.17;;
35126;SDS011;21300;52.006;5.798;2022-09-13T11:21:30;5.05;;;2.42;;
35126;SDS011;21300;52.006;5.798;2022-09-13T11:44:06;4.15;;;1.33;;
35126;SDS011;21300;52.006;5.798;2022-09-13T11:47:08;3.42;;;1.17;;
35126;SDS011;21300;52.006;5.798;2022-09-13T11:58:08;2.22;;;1.55;;
35126;SDS011;21300;52.006;5.798;2022-09-13T12:00:40;3.53;;;1.38;;
35126;SDS011;21300;52.006;5.798;2022-09-13T12:03:13;2.35;;;1.48;;
35126;SDS011;21300;52.006;5.798;2022-09-13T12:05:44;3.97;;;1.40;;
35126;SDS011;21300;52.006;5.798;2022-09-13T12:08:17;3.40;;;1.30;;
35126;SDS011;21300;52.006;5.798;2022-09-13T12:10:52;2.55;;;1.30;;
35126;SDS011;21300;52.006;5.798;2022-09-13T12:13:28;3.13;;;1.20;;
35126;SDS011;21300;52.006;5.798;2022-09-13T12:16:09;4.70;;;1.45;;
35126;SDS011;21300;52.006;5.798;2022-09-13T12:18:44;4.40;;;1.52;;
35126;SDS011;21300;52.006;5.798;2022-09-13T12:24:02;1.60;;;1.00;;
35126;SDS011;21300;52.006;5.798;2022-09-13T12:31:53;4.50;;;1.33;;
35126;SDS011;21300;52.006;5.798;2022-09-13T12:34:43;2.00;;;1.40;;
35126;SDS011;21300;52.006;5.798;2022-09-13T12:45:44;3.50;;;1.30;;
35126;SDS011;21300;52.006;5.798;2022-09-13T12:48:30;2.58;;;1.10;;
35126;SDS011;21300;52.006;5.798;2022-09-13T13:01:47;3.05;;;1.10;;
35126;SDS011;21300;52.006;5.798;2022-09-13T13:06:49;2.03;;;1.10;;
35126;SDS011;21300;52.006;5.798;2022-09-13T13:09:20;3.75;;;1.58;;
35126;SDS011;21300;52.006;5.798;2022-09-13T13:11:53;3.92;;;1.20;;
35126;SDS011;21300;52.006;5.798;2022-09-13T13:14:26;3.30;;;1.15;;
35126;SDS011;21300;52.006;5.798;2022-09-13T13:25:54;4.20;;;1.20;;
35126;SDS011;21300;52.006;5.798;2022-09-13T13:31:09;2.50;;;1.00;;
35126;SDS011;21300;52.006;5.798;2022-09-13T13:33:47;3.65;;;1.40;;
35126;SDS011;21300;52.006;5.798;2022-09-13T13:57:25;2.35;;;0.93;;
35126;SDS011;21300;52.006;5.798;2022-09-13T14:00:21;5.90;;;1.45;;
35126;SDS011;21300;52.006;5.798;2022-09-13T14:07:57;5.05;;;1.02;;
35126;SDS011;21300;52.006;5.798;2022-09-13T14:22:04;4.20;;;1.20;;
35126;SDS011;21300;52.006;5.798;2022-09-13T14:24:51;4.25;;;1.00;;
35126;SDS011;21300;52.006;5.798;2022-09-13T14:27:22;4.05;;;1.10;;
35126;SDS011;21300;52.006;5.798;2022-09-13T14:29:49;1.80;;;0.90;;
35126;SDS011;21300;52.006;5.798;2022-09-13T14:32:21;3.90;;;1.10;;
35126;SDS011;21300;52.006;5.798;2022-09-13T14:34:50;3.25;;;0.82;;
35126;SDS011;21300;52.006;5.798;2022-09-13T14:37:25;3.08;;;0.80;;
35126;SDS011;21300;52.006;5.798;2022-09-13T14:42:40;4.43;;;1.17;;
35126;SDS011;21300;52.006;5.798;2022-09-13T14:45:15;3.50;;;0.95;;
35126;SDS011;21300;52.006;5.798;2022-09-13T14:50:23;5.15;;;1.10;;
35126;SDS011;21300;52.006;5.798;2022-09-13T14:53:01;2.80;;;1.10;;
35126;SDS011;21300;52.006;5.798;2022-09-13T14:55:30;3.15;;;1.13;;
35126;SDS011;21300;52.006;5.798;2022-09-13T14:58:02;2.92;;;1.20;;
35126;SDS011;21300;52.006;5.798;2022-09-13T15:00:32;5.68;;;0.90;;
35126;SDS011;21300;52.006;5.798;2022-09-13T15:03:13;4.05;;;1.05;;
35126;SDS011;21300;52.006;5.798;2022-09-13T15:05:40;2.75;;;1.00;;
35126;SDS011;21300;52.006;5.798;2022-09-13T15:10:57;5.50;;;1.00;;
35126;SDS011;21300;52.006;5.798;2022-09-13T15:13:27;2.88;;;1.05;;
35126;SDS011;21300;52.006;5.798;2022-09-13T15:15:53;2.38;;;0.73;;
35126;SDS011;21300;52.006;5.798;2022-09-13T15:20:51;3.22;;;1.25;;
35126;SDS011;21300;52.006;5.798;2022-09-13T15:23:22;2.83;;;1.05;;
35126;SDS011;21300;52.006;5.798;2022-09-13T15:26:09;9.75;;;1.38;;
35126;SDS011;21300;52.006;5.798;2022-09-13T15:31:07;4.97;;;1.10;;
35126;SDS011;21300;52.006;5.798;2022-09-13T15:33:34;3.67;;;1.10;;
35126;SDS011;21300;52.006;5.798;2022-09-13T15:39:17;3.67;;;0.80;;
35126;SDS011;21300;52.006;5.798;2022-09-13T15:41:55;2.90;;;0.70;;
35126;SDS011;21300;52.006;5.798;2022-09-13T15:44:25;3.65;;;0.88;;
35126;SDS011;21300;52.006;5.798;2022-09-13T15:46:55;3.05;;;0.90;;
35126;SDS011;21300;52.006;5.798;2022-09-13T15:49:26;5.35;;;1.10;;
35126;SDS011;21300;52.006;5.798;2022-09-13T15:51:57;3.65;;;0.88;;
35126;SDS011;21300;52.006;5.798;2022-09-13T15:54:30;3.22;;;1.08;;
35126;SDS011;21300;52.006;5.798;2022-09-13T15:56:57;4.75;;;1.10;;
35126;SDS011;21300;52.006;5.798;2022-09-13T15:59:23;6.45;;;1.10;;
35126;SDS011;21300;52.006;5.798;2022-09-13T16:01:49;3.08;;;1.00;;
35126;SDS011;21300;52.006;5.798;2022-09-13T16:04:16;3.30;;;1.00;;
35126;SDS011;21300;52.006;5.798;2022-09-13T16:06:42;2.60;;;0.90;;
35126;SDS011;21300;52.006;5.798;2022-09-13T16:09:15;5.50;;;1.10;;
35126;SDS011;21300;52.006;5.798;2022-09-13T16:11:43;2.80;;;0.93;;
35126;SDS011;21300;52.006;5.798;2022-09-13T16:14:10;4.75;;;0.93;;
35126;SDS011;21300;52.006;5.798;2022-09-13T16:16:35;4.97;;;1.00;;
35126;SDS011;21300;52.006;5.798;2022-09-13T16:19:02;3.45;;;0.98;;
35126;SDS011;21300;52.006;5.798;2022-09-13T16:21:28;6.50;;;1.08;;
35126;SDS011;21300;52.006;5.798;2022-09-13T16:23:54;6.20;;;0.98;;
35126;SDS011;21300;52.006;5.798;2022-09-13T16:26:20;2.97;;;0.80;;
35126;SDS011;21300;52.006;5.798;2022-09-13T16:28:46;4.50;;;1.00;;
35126;SDS011;21300;52.006;5.798;2022-09-13T16:31:11;5.60;;;0.90;;
35126;SDS011;21300;52.006;5.798;2022-09-13T16:33:39;6.28;;;0.80;;
35126;SDS011;21300;52.006;5.798;2022-09-13T16:36:05;5.25;;;0.80;;
35126;SDS011;21300;52.006;5.798;2022-09-13T16:38:31;2.67;;;0.68;;
35126;SDS011;21300;52.006;5.798;2022-09-13T16:40:56;3.85;;;0.68;;
35126;SDS011;21300;52.006;5.798;2022-09-13T16:43:22;2.20;;;0.70;;
35126;SDS011;21300;52.006;5.798;2022-09-13T16:45:47;3.88;;;0.80;;
35126;SDS011;21300;52.006;5.798;2022-09-13T16:48:15;2.72;;;0.60;;
35126;SDS011;21300;52.006;5.798;2022-09-13T16:50:41;4.25;;;0.75;;
35126;SDS011;21300;52.006;5.798;2022-09-13T16:53:07;5.45;;;0.75;;
35126;SDS011;21300;52.006;5.798;2022-09-13T16:55:33;5.45;;;1.20;;
35126;SDS011;21300;52.006;5.798;2022-09-13T16:57:59;3.30;;;0.60;;
35126;SDS011;21300;52.006;5.798;2022-09-13T17:00:25;6.18;;;0.90;;
35126;SDS011;21300;52.006;5.798;2022-09-13T17:02:53;4.10;;;0.70;;
35126;SDS011;21300;52.006;5.798;2022-09-13T17:05:37;5.25;;;0.85;;
35126;SDS011;21300;52.006;5.798;2022-09-13T17:08:03;7.00;;;0.80;;
35126;SDS011;21300;52.006;5.798;2022-09-13T17:10:28;4.57;;;0.60;;
35126;SDS011;21300;52.006;5.798;2022-09-13T17:12:54;4.32;;;0.93;;
35126;SDS011;21300;52.006;5.798;2022-09-13T17:15:20;3.97;;;0.70;;
35126;SDS011;21300;52.006;5.798;2022-09-13T17:17:45;4.47;;;0.77;;
35126;SDS011;21300;52.006;5.798;2022-09-13T17:20:11;3.72;;;0.57;;
35126;SDS011;21300;52.006;5.798;2022-09-13T17:22:38;6.32;;;0.70;;
35126;SDS011;21300;52.006;5.798;2022-09-13T17:25:05;6.13;;;1.05;;
35126;SDS011;21300;52.006;5.798;2022-09-13T17:27:34;14.88;;;1.10;;
35126;SDS011;21300;52.006;5.798;2022-09-13T17:30:00;3.00;;;0.57;;
35126;SDS011;21300;52.006;5.798;2022-09-13T17:32:29;4.70;;;0.70;;
35126;SDS011;21300;52.006;5.798;2022-09-13T17:34:54;4.05;;;0.60;;
35126;SDS011;21300;52.006;5.798;2022-09-13T17:37:20;8.32;;;0.90;;
35126;SDS011;21300;52.006;5.798;2022-09-13T17:39:46;3.17;;;0.88;;
35126;SDS011;21300;52.006;5.798;2022-09-13T17:42:12;4.35;;;0.80;;
35126;SDS011;21300;52.006;5.798;2022-09-13T17:44:38;2.65;;;0.60;;
35126;SDS011;21300;52.006;5.798;2022-09-13T17:47:03;4.60;;;0.60;;
35126;SDS011;21300;52.006;5.798;2022-09-13T17:49:30;6.32;;;0.65;;
35126;SDS011;21300;52.006;5.798;2022-09-13T17:51:56;6.80;;;0.75;;
35126;SDS011;21300;52.006;5.798;2022-09-13T17:54:21;6.85;;;0.82;;
35126;SDS011;21300;52.006;5.798;2022-09-13T17:56:49;4.10;;;0.82;;
35126;SDS011;21300;52.006;5.798;2022-09-13T17:59:16;7.05;;;0.68;;
35126;SDS011;21300;52.006;5.798;2022-09-13T18:01:44;3.95;;;0.90;;
35126;SDS011;21300;52.006;5.798;2022-09-13T18:04:16;3.22;;;0.80;;
35126;SDS011;21300;52.006;5.798;2022-09-13T18:06:44;4.05;;;0.50;;
35126;SDS011;21300;52.006;5.798;2022-09-13T18:09:10;4.38;;;0.63;;
35126;SDS011;21300;52.006;5.798;2022-09-13T18:11:38;2.50;;;0.47;;
35126;SDS011;21300;52.006;5.798;2022-09-13T18:14:04;3.25;;;0.80;;
35126;SDS011;21300;52.006;5.798;2022-09-13T18:16:30;5.38;;;0.85;;
35126;SDS011;21300;52.006;5.798;2022-09-13T18:18:57;4.88;;;0.70;;
35126;SDS011;21300;52.006;5.798;2022-09-13T18:21:23;4.88;;;0.70;;
35126;SDS011;21300;52.006;5.798;2022-09-13T18:23:51;6.25;;;0.63;;
35126;SDS011;21300;52.006;5.798;2022-09-13T18:26:19;2.95;;;0.63;;
35126;SDS011;21300;52.006;5.798;2022-09-13T18:28:51;5.32;;;0.77;;
35126;SDS011;21300;52.006;5.798;2022-09-13T18:31:22;2.92;;;0.70;;
35126;SDS011;21300;52.006;5.798;2022-09-13T18:33:52;3.70;;;0.60;;
35126;SDS011;21300;52.006;5.798;2022-09-13T18:36:20;11.63;;;1.95;;
35126;SDS011;21300;52.006;5.798;2022-09-13T18:38:46;5.05;;;0.60;;
35126;SDS011;21300;52.006;5.798;2022-09-13T18:43:41;5.10;;;0.98;;
35126;SDS011;21300;52.006;5.798;2022-09-13T18:46:09;7.30;;;0.70;;
35126;SDS011;21300;52.006;5.798;2022-09-13T18:48:37;4.60;;;0.88;;